CheckWX is a tool to help pilots better visualize weather data.  It is not intended as a substitute for an official pre-flight weather briefing.

16:06:23 UTC

FBFT METAR
Francistown Airport
Francistown, Botswana
Current

1 hour ago

FBFT 201500Z 09007KT 050V120 CAVOK 29/11 Q1017
Observed
Feb-20 @ 15:00 UTC
Wind
  • 090° at 7 KTS
Visibility
10,000+ meters
Flight Rules
VFR
Cloud Levels
  • Clear skies
Temperature
29°C / 84°F
Dewpoint
11°C / 52°F
Humidity
33%
Altimeter
30.03" Hg
Pressure
1016.92 hPa
Previous

2 hours ago

FBFT 201400Z 10009KT CAVOK 29/11 Q1018
Observed
Feb-20 @ 14:00 UTC
Wind
  • 100° at 9 KTS
Visibility
10,000+ meters
Flight Rules
VFR
Cloud Levels
  • Clear skies
Temperature
29°C / 84°F
Dewpoint
11°C / 52°F
Humidity
33%
Altimeter
30.06" Hg
Pressure
1017.92 hPa
Previous

3 hours ago

FBFT 201300Z 09008KT 040V130 CAVOK 29/11 Q1018
Observed
Feb-20 @ 13:00 UTC
Wind
  • 090° at 8 KTS
Visibility
10,000+ meters
Flight Rules
VFR
Cloud Levels
  • Clear skies
Temperature
29°C / 84°F
Dewpoint
11°C / 52°F
Humidity
33%
Altimeter
30.06" Hg
Pressure
1017.92 hPa